createdAt,value
2023-04-22T00:00:24.403Z,3.23
2023-04-22T00:03:11.931Z,3.10
2023-04-22T00:05:59.638Z,3.90
2023-04-22T00:08:47.193Z,3.10
2023-04-22T00:11:34.583Z,2.80
2023-04-22T00:14:21.896Z,3.90
2023-04-22T00:17:09.265Z,3.50
2023-04-22T00:19:57.014Z,3.47
2023-04-22T00:22:44.441Z,3.30
2023-04-22T00:25:31.866Z,3.40
2023-04-22T00:28:19.524Z,3.80
2023-04-22T00:31:06.950Z,3.50
2023-04-22T00:33:54.321Z,3.37
2023-04-22T00:36:41.701Z,3.70
2023-04-22T00:39:29.102Z,3.10
2023-04-22T00:42:16.885Z,4.17
2023-04-22T00:45:04.584Z,3.73
2023-04-22T00:47:52.411Z,3.40
2023-04-22T00:50:39.801Z,3.60
2023-04-22T00:53:27.144Z,3.97
2023-04-22T00:56:14.846Z,3.40
2023-04-22T00:59:02.935Z,4.07
2023-04-22T01:01:50.942Z,3.80
2023-04-22T01:04:38.671Z,3.40
2023-04-22T01:07:26.017Z,3.80
2023-04-22T01:10:13.402Z,4.30
2023-04-22T01:13:00.925Z,4.10
2023-04-22T01:15:48.479Z,3.57
2023-04-22T01:18:36.714Z,3.63
2023-04-22T01:21:24.270Z,3.97
2023-04-22T01:24:11.755Z,3.70
2023-04-22T01:26:59.090Z,4.07
2023-04-22T01:29:46.682Z,3.90
2023-04-22T01:32:34.115Z,3.90
2023-04-22T01:35:21.514Z,3.53
2023-04-22T01:38:09.896Z,3.37
2023-04-22T01:40:57.266Z,3.50
2023-04-22T01:43:45.136Z,3.70
2023-04-22T01:46:33.544Z,3.70
2023-04-22T01:49:21.533Z,3.87
2023-04-22T01:52:08.978Z,3.57
2023-04-22T01:54:56.709Z,3.90
2023-04-22T01:57:44.060Z,3.43
2023-04-22T02:00:31.633Z,4.10
2023-04-22T02:03:19.057Z,3.43
2023-04-22T02:06:06.537Z,3.37
2023-04-22T02:08:54.062Z,3.63
2023-04-22T02:11:41.443Z,3.83
2023-04-22T02:14:28.839Z,3.70
2023-04-22T02:17:17.744Z,3.90
2023-04-22T02:20:06.160Z,3.70
2023-04-22T02:22:53.618Z,3.83
2023-04-22T02:25:41.002Z,3.63
2023-04-22T02:28:28.340Z,3.57
2023-04-22T02:31:15.813Z,3.87
2023-04-22T02:34:03.269Z,3.93
2023-04-22T02:36:50.631Z,4.05
2023-04-22T02:39:38.230Z,3.43
2023-04-22T02:42:25.893Z,3.90
2023-04-22T02:45:13.303Z,4.30
2023-04-22T02:48:00.751Z,3.80
2023-04-22T02:50:48.141Z,4.30
2023-04-22T02:53:36.171Z,3.73
2023-04-22T02:56:23.581Z,4.50
2023-04-22T02:59:10.921Z,4.10
2023-04-22T03:01:58.346Z,4.20
2023-04-22T03:04:45.821Z,3.77
2023-04-22T03:07:33.193Z,4.23
2023-04-22T03:10:20.529Z,4.57
2023-04-22T03:13:07.941Z,4.77
2023-04-22T03:15:55.283Z,4.60
2023-04-22T03:18:42.644Z,4.60
2023-04-22T03:21:29.978Z,4.77
2023-04-22T03:24:17.402Z,5.10
2023-04-22T03:27:05.314Z,4.70
2023-04-22T03:29:52.680Z,4.77
2023-04-22T03:32:40.098Z,4.70
2023-04-22T03:35:27.815Z,5.23
2023-04-22T03:38:15.527Z,5.10
2023-04-22T03:41:02.932Z,4.70
2023-04-22T03:43:50.333Z,5.37
2023-04-22T03:46:37.670Z,5.27
2023-04-22T03:49:25.966Z,5.20
2023-04-22T03:52:13.308Z,5.23
2023-04-22T03:55:00.656Z,4.73
2023-04-22T03:57:48.041Z,5.27
2023-04-22T04:00:35.412Z,4.70
2023-04-22T04:03:22.890Z,4.60
2023-04-22T04:06:10.405Z,4.97
2023-04-22T04:08:58.472Z,4.47
2023-04-22T04:11:45.844Z,4.83
2023-04-22T04:14:33.186Z,4.80
2023-04-22T04:17:21.480Z,4.50
2023-04-22T04:20:09.027Z,5.70
2023-04-22T04:22:56.670Z,5.20
2023-04-22T04:25:44.137Z,4.23
2023-04-22T04:28:32.837Z,4.87
2023-04-22T04:31:20.403Z,4.83
2023-04-22T04:34:07.887Z,5.03
2023-04-22T04:36:56.029Z,5.63
2023-04-22T04:39:44.422Z,5.00
2023-04-22T04:42:33.390Z,6.30
2023-04-22T04:45:20.721Z,5.37
2023-04-22T04:48:08.981Z,5.23
2023-04-22T04:50:56.563Z,4.67
2023-04-22T04:53:43.903Z,5.10
2023-04-22T04:56:31.651Z,5.20
2023-04-22T04:59:19.025Z,5.40
2023-04-22T05:02:06.493Z,5.13
2023-04-22T05:04:54.090Z,5.27
2023-04-22T05:07:41.522Z,5.10
2023-04-22T05:10:29.033Z,5.33
2023-04-22T05:13:16.402Z,5.10
2023-04-22T05:16:03.789Z,5.43
2023-04-22T05:18:51.145Z,5.63
2023-04-22T05:21:38.500Z,5.37
2023-04-22T05:24:26.133Z,5.33
2023-04-22T05:27:13.805Z,5.37
2023-04-22T05:30:02.005Z,5.40
2023-04-22T05:32:49.464Z,5.40
2023-04-22T05:35:36.905Z,5.67
2023-04-22T05:38:24.348Z,5.27
2023-04-22T05:41:11.684Z,5.60
2023-04-22T05:43:59.084Z,5.30
2023-04-22T05:46:46.495Z,5.97
2023-04-22T05:49:33.891Z,5.60
2023-04-22T05:52:21.223Z,5.97
2023-04-22T05:55:08.758Z,5.20
2023-04-22T05:57:56.236Z,5.40
2023-04-22T06:00:43.586Z,5.80
2023-04-22T06:03:31.243Z,5.83
2023-04-22T06:06:18.920Z,5.80
2023-04-22T06:09:07.197Z,5.90
2023-04-22T06:11:54.628Z,5.73
2023-04-22T06:14:41.955Z,6.07
2023-04-22T06:17:29.336Z,6.00
2023-04-22T06:20:16.722Z,5.90
2023-04-22T06:23:05.287Z,6.03
2023-04-22T06:25:52.749Z,6.57
2023-04-22T06:28:40.162Z,5.67
2023-04-22T06:31:27.604Z,6.30
2023-04-22T06:34:14.998Z,6.13
2023-04-22T06:37:02.346Z,6.67
2023-04-22T06:39:49.690Z,6.37
2023-04-22T06:42:37.165Z,6.93
2023-04-22T06:45:24.520Z,6.00
2023-04-22T06:48:11.943Z,6.23
2023-04-22T06:50:59.313Z,6.10
2023-04-22T06:53:46.854Z,5.93
2023-04-22T06:56:34.263Z,6.20
2023-04-22T06:59:21.653Z,6.70
2023-04-22T07:02:09.282Z,6.28
2023-04-22T07:04:56.750Z,5.95
2023-04-22T07:07:44.112Z,6.00
2023-04-22T07:10:31.468Z,6.30
2023-04-22T07:13:18.831Z,6.18
2023-04-22T07:16:06.363Z,6.35
2023-04-22T07:18:53.884Z,6.97
2023-04-22T07:21:41.295Z,5.97
2023-04-22T07:24:28.638Z,5.93
2023-04-22T07:27:16.342Z,6.00
2023-04-22T07:30:03.974Z,5.80
2023-04-22T07:32:52.247Z,6.13
2023-04-22T07:35:39.712Z,5.85
2023-04-22T07:38:27.118Z,5.90
2023-04-22T07:41:14.555Z,6.40
2023-04-22T07:44:03.260Z,5.90
2023-04-22T07:46:50.967Z,6.38
2023-04-22T07:49:38.514Z,5.53
2023-04-22T07:52:26.098Z,5.85
2023-04-22T07:55:13.439Z,6.20
2023-04-22T07:58:01.145Z,6.55
2023-04-22T08:00:48.680Z,5.60
2023-04-22T08:03:36.206Z,5.65
2023-04-22T08:06:23.774Z,6.00
2023-04-22T08:09:11.180Z,6.50
2023-04-22T08:11:58.522Z,5.25
2023-04-22T08:14:45.891Z,5.57
2023-04-22T08:17:33.346Z,5.93
2023-04-22T08:20:20.761Z,5.72
2023-04-22T08:23:08.141Z,5.45
2023-04-22T08:25:55.506Z,5.20
2023-04-22T08:28:43.155Z,5.25
2023-04-22T08:31:30.768Z,5.88
2023-04-22T08:34:18.149Z,5.55
2023-04-22T08:37:05.548Z,5.43
2023-04-22T08:39:54.045Z,6.05
2023-04-22T08:42:41.441Z,5.55
2023-04-22T08:45:29.032Z,5.60
2023-04-22T08:48:16.726Z,5.97
2023-04-22T08:51:04.293Z,5.03
2023-04-22T08:53:51.633Z,5.47
2023-04-22T08:56:44.014Z,5.20
2023-04-22T08:59:31.861Z,5.47
2023-04-22T09:02:22.935Z,5.53
2023-04-22T09:05:11.164Z,5.80
2023-04-22T09:07:59.268Z,5.90
2023-04-22T09:10:46.671Z,5.30
2023-04-22T09:13:34.679Z,5.55
2023-04-22T09:16:22.078Z,5.70
2023-04-22T09:19:12.289Z,5.10
2023-04-22T09:21:59.729Z,5.47
2023-04-22T09:24:51.140Z,5.00
2023-04-22T09:27:38.520Z,5.85
2023-04-22T09:30:32.909Z,4.93
2023-04-22T09:33:20.251Z,4.32
2023-04-22T09:36:10.766Z,4.88
2023-04-22T09:38:59.634Z,4.75
2023-04-22T09:41:54.800Z,4.35
2023-04-22T09:44:42.168Z,4.63
2023-04-22T09:47:36.391Z,4.40
2023-04-22T09:50:27.054Z,4.95
2023-04-22T09:53:21.416Z,4.20
2023-04-22T09:56:08.784Z,4.57
2023-04-22T09:58:56.133Z,4.35
2023-04-22T10:01:43.589Z,3.80
2023-04-22T10:04:31.377Z,4.90
2023-04-22T10:07:18.959Z,4.80
2023-04-22T10:10:09.432Z,5.25
2023-04-22T10:12:57.332Z,5.07
2023-04-22T10:15:56.067Z,5.00
2023-04-22T10:18:43.493Z,4.75
2023-04-22T10:21:31.757Z,4.93
2023-04-22T10:24:19.907Z,5.05
2023-04-22T10:27:08.427Z,4.57
2023-04-22T10:29:57.587Z,4.57
2023-04-22T10:32:45.052Z,4.25
2023-04-22T10:35:32.424Z,4.57
2023-04-22T10:38:19.757Z,4.43
2023-04-22T10:41:07.488Z,5.28
2023-04-22T10:44:22.060Z,4.53
2023-04-22T10:47:09.850Z,4.40
2023-04-22T10:50:17.913Z,4.85
2023-04-22T10:53:23.877Z,4.55
2023-04-22T10:56:18.069Z,4.32
2023-04-22T10:59:17.654Z,4.25
2023-04-22T11:02:08.930Z,4.82
2023-04-22T11:05:19.909Z,5.25
2023-04-22T11:08:09.479Z,5.15
2023-04-22T11:11:08.232Z,4.22
2023-04-22T11:13:55.978Z,4.68
2023-04-22T11:16:47.294Z,4.28
2023-04-22T11:19:34.664Z,4.13
2023-04-22T11:22:22.341Z,3.97
2023-04-22T11:25:10.223Z,3.75
2023-04-22T11:27:58.216Z,3.90
2023-04-22T11:30:45.617Z,4.15
2023-04-22T11:33:34.274Z,3.60
2023-04-22T11:36:23.158Z,3.92
2023-04-22T11:39:14.902Z,3.50
2023-04-22T11:42:02.626Z,3.95
2023-04-22T11:44:51.256Z,3.88
2023-04-22T11:47:38.706Z,3.53
2023-04-22T11:50:27.438Z,3.97
2023-04-22T11:53:18.859Z,3.90
2023-04-22T11:56:06.288Z,3.70
2023-04-22T11:58:53.626Z,3.65
2023-04-22T12:01:42.461Z,3.15
2023-04-22T12:04:29.796Z,3.85
2023-04-22T12:07:17.205Z,3.85
2023-04-22T12:10:07.639Z,3.70
2023-04-22T12:12:55.241Z,3.55
2023-04-22T12:15:43.375Z,3.40
2023-04-22T12:18:33.564Z,3.45
2023-04-22T12:21:22.156Z,3.58
2023-04-22T12:24:13.042Z,4.10
2023-04-22T12:27:01.758Z,3.78
2023-04-22T12:29:53.306Z,3.40
2023-04-22T12:32:40.801Z,3.72
2023-04-22T12:35:28.206Z,3.50
2023-04-22T12:38:15.993Z,3.15
2023-04-22T12:41:04.226Z,3.08
2023-04-22T12:43:52.477Z,3.42
2023-04-22T12:46:39.920Z,3.58
2023-04-22T12:49:27.346Z,4.03
2023-04-22T12:52:14.739Z,3.78
2023-04-22T12:55:02.229Z,3.88
2023-04-22T12:57:51.284Z,3.92
2023-04-22T13:00:38.710Z,3.97
2023-04-22T13:03:26.306Z,3.90
2023-04-22T13:06:13.740Z,3.45
2023-04-22T13:09:01.158Z,3.45
2023-04-22T13:11:49.295Z,3.55
2023-04-22T13:14:36.761Z,3.80
2023-04-22T13:17:24.283Z,3.58
2023-04-22T13:20:13.992Z,3.25
2023-04-22T13:23:02.256Z,3.40
2023-04-22T13:25:56.810Z,3.38
2023-04-22T13:28:44.140Z,3.30
2023-04-22T13:31:31.529Z,3.30
2023-04-22T13:34:18.899Z,3.45
2023-04-22T13:37:06.580Z,3.70
2023-04-22T13:39:54.087Z,3.58
2023-04-22T13:42:41.877Z,3.53
2023-04-22T13:45:29.300Z,3.40
2023-04-22T13:48:17.798Z,3.67
2023-04-22T13:51:05.348Z,3.67
2023-04-22T13:53:52.688Z,3.97
2023-04-22T13:56:40.153Z,4.00
2023-04-22T13:59:27.560Z,3.30
2023-04-22T14:02:14.928Z,3.80
2023-04-22T14:05:02.351Z,3.95
2023-04-22T14:07:49.806Z,3.90
2023-04-22T14:10:37.136Z,3.53
2023-04-22T14:13:24.620Z,3.90
2023-04-22T14:16:12.498Z,3.13
2023-04-22T14:19:02.593Z,3.88
2023-04-22T14:21:49.975Z,4.18
2023-04-22T14:24:37.800Z,4.43
2023-04-22T14:27:25.221Z,3.80
2023-04-22T14:30:12.968Z,3.35
2023-04-22T14:33:00.854Z,3.55
2023-04-22T14:35:48.340Z,3.15
2023-04-22T14:38:35.794Z,3.60
2023-04-22T14:41:23.203Z,3.42
2023-04-22T14:44:10.811Z,3.78
2023-04-22T14:46:58.255Z,3.35
2023-04-22T14:49:45.654Z,3.13
2023-04-22T14:52:33.095Z,3.15
2023-04-22T14:55:23.645Z,2.92
2023-04-22T14:58:11.497Z,3.00
2023-04-22T15:00:59.747Z,3.50
2023-04-22T15:03:48.738Z,3.13
2023-04-22T15:06:36.417Z,2.70
2023-04-22T15:09:24.526Z,3.00
2023-04-22T15:12:11.928Z,2.90
2023-04-22T15:14:59.296Z,2.92
2023-04-22T15:17:46.811Z,3.00
2023-04-22T15:20:34.309Z,2.58
2023-04-22T15:23:21.694Z,2.60
2023-04-22T15:26:09.096Z,2.50
2023-04-22T15:28:56.477Z,2.65
2023-04-22T15:31:45.164Z,2.70
2023-04-22T15:34:32.628Z,2.85
2023-04-22T15:37:20.010Z,2.95
2023-04-22T15:40:07.679Z,3.50
2023-04-22T15:42:55.115Z,5.53
2023-04-22T15:45:42.569Z,4.05
2023-04-22T15:48:29.904Z,2.97
2023-04-22T15:51:17.952Z,3.00
2023-04-22T15:54:05.355Z,2.95
2023-04-22T15:56:52.696Z,2.83
2023-04-22T15:59:40.313Z,2.97
2023-04-22T16:02:28.032Z,2.90
2023-04-22T16:05:15.438Z,3.05
2023-04-22T16:08:03.530Z,3.50
2023-04-22T16:10:50.942Z,3.22
2023-04-22T16:13:38.937Z,2.88
2023-04-22T16:16:27.526Z,3.08
2023-04-22T16:19:15.035Z,3.10
2023-04-22T16:22:02.487Z,3.03
2023-04-22T16:24:49.892Z,3.30
2023-04-22T16:27:37.268Z,2.60
2023-04-22T16:30:24.661Z,3.00
2023-04-22T16:33:12.059Z,2.85
2023-04-22T16:35:59.414Z,2.58
2023-04-22T16:38:46.754Z,3.05
2023-04-22T16:41:36.894Z,3.20
2023-04-22T16:44:24.261Z,2.55
2023-04-22T16:47:11.615Z,2.80
2023-04-22T16:49:58.996Z,3.22
2023-04-22T16:52:46.349Z,3.28
2023-04-22T16:55:35.083Z,3.67
2023-04-22T16:58:24.199Z,3.30
2023-04-22T17:01:11.589Z,3.08
2023-04-22T17:03:59.345Z,3.38
2023-04-22T17:06:46.918Z,2.60
2023-04-22T17:09:34.337Z,3.45
2023-04-22T17:12:21.948Z,3.22
2023-04-22T17:15:09.624Z,2.63
2023-04-22T17:17:57.027Z,2.85
2023-04-22T17:20:44.455Z,2.95
2023-04-22T17:23:31.856Z,2.45
2023-04-22T17:26:19.263Z,2.72
2023-04-22T17:29:06.648Z,2.58
2023-04-22T17:31:54.045Z,2.78
2023-04-22T17:34:41.678Z,3.13
2023-04-22T17:37:29.270Z,3.10
2023-04-22T17:40:16.855Z,2.50
2023-04-22T17:43:04.298Z,2.83
2023-04-22T17:45:51.699Z,3.00
2023-04-22T17:48:39.994Z,3.03
2023-04-22T17:51:27.884Z,2.75
2023-04-22T17:54:15.237Z,3.08
2023-04-22T17:57:03.037Z,2.85
2023-04-22T17:59:50.459Z,2.90
2023-04-22T18:02:38.095Z,2.90
2023-04-22T18:05:27.150Z,2.90
2023-04-22T18:08:14.553Z,2.67
2023-04-22T18:11:04.818Z,3.05
2023-04-22T18:13:52.539Z,2.50
2023-04-22T18:16:39.950Z,2.65
2023-04-22T18:19:27.363Z,3.10
2023-04-22T18:22:14.855Z,2.80
2023-04-22T18:25:02.250Z,2.78
2023-04-22T18:27:50.554Z,2.83
2023-04-22T18:30:37.933Z,2.67
2023-04-22T18:33:25.524Z,2.70
2023-04-22T18:36:12.968Z,2.80
2023-04-22T18:39:00.406Z,2.80
2023-04-22T18:41:48.127Z,2.60
2023-04-22T18:44:35.841Z,2.70
2023-04-22T18:47:23.302Z,2.72
2023-04-22T18:50:10.916Z,2.80
2023-04-22T18:52:58.265Z,2.90
2023-04-22T18:55:45.653Z,2.80
2023-04-22T18:58:32.998Z,2.80
2023-04-22T19:01:20.505Z,2.75
2023-04-22T19:04:08.067Z,2.60
2023-04-22T19:06:57.206Z,3.03
2023-04-22T19:09:44.606Z,3.47
2023-04-22T19:12:31.991Z,4.38
2023-04-22T19:15:21.201Z,3.55
2023-04-22T19:18:08.540Z,2.70
2023-04-22T19:20:55.965Z,2.65
2023-04-22T19:23:43.332Z,3.13
2023-04-22T19:26:31.105Z,4.97
2023-04-22T19:29:18.473Z,5.75
2023-04-22T19:32:07.074Z,4.22
2023-04-22T19:34:54.490Z,2.90
2023-04-22T19:37:41.887Z,3.45
2023-04-22T19:40:29.365Z,3.40
2023-04-22T19:43:18.837Z,3.05
2023-04-22T19:46:06.217Z,3.50
2023-04-22T19:48:53.711Z,3.30
2023-04-22T19:51:41.710Z,3.20
2023-04-22T19:54:30.265Z,3.20
2023-04-22T19:57:17.890Z,3.50
2023-04-22T20:00:07.545Z,3.25
2023-04-22T20:02:55.154Z,3.10
2023-04-22T20:05:44.218Z,3.58
2023-04-22T20:08:31.811Z,3.70
2023-04-22T20:11:20.711Z,3.47
2023-04-22T20:14:09.720Z,3.53
2023-04-22T20:16:57.167Z,3.40
2023-04-22T20:19:45.374Z,3.38
2023-04-22T20:22:33.186Z,3.50
2023-04-22T20:25:20.617Z,3.63
2023-04-22T20:28:08.407Z,3.58
2023-04-22T20:30:56.192Z,3.33
2023-04-22T20:33:43.560Z,3.50
2023-04-22T20:36:31.094Z,3.30
2023-04-22T20:39:18.602Z,3.50
2023-04-22T20:42:06.277Z,3.22
2023-04-22T20:44:53.711Z,3.63
2023-04-22T20:47:41.615Z,3.70
2023-04-22T20:50:33.245Z,3.10
2023-04-22T20:53:20.658Z,3.60
2023-04-22T20:56:08.566Z,3.47
2023-04-22T20:58:56.046Z,4.13
2023-04-22T21:01:43.605Z,4.88
2023-04-22T21:04:32.344Z,5.65
2023-04-22T21:07:21.051Z,3.60
2023-04-22T21:10:08.795Z,3.75
2023-04-22T21:12:56.319Z,4.15
2023-04-22T21:16:06.998Z,3.30
2023-04-22T21:18:56.090Z,3.58
2023-04-22T21:21:43.924Z,4.03
2023-04-22T21:24:31.992Z,3.40
2023-04-22T21:27:20.205Z,3.50
2023-04-22T21:30:07.924Z,3.65
2023-04-22T21:32:55.362Z,3.50
2023-04-22T21:35:42.816Z,3.58
2023-04-22T21:38:30.187Z,3.67
2023-04-22T21:41:17.549Z,6.22
2023-04-22T21:44:04.928Z,6.55
2023-04-22T21:46:52.282Z,6.10
2023-04-22T21:49:39.608Z,4.85
2023-04-22T21:52:27.002Z,4.53
2023-04-22T21:55:14.343Z,3.63
2023-04-22T21:58:01.761Z,3.55
2023-04-22T22:00:49.492Z,3.38
2023-04-22T22:03:37.984Z,3.47
2023-04-22T22:06:26.777Z,3.40
2023-04-22T22:09:14.163Z,3.38
2023-04-22T22:12:01.836Z,3.20
2023-04-22T22:14:49.217Z,3.17
2023-04-22T22:17:40.043Z,3.42
2023-04-22T22:20:29.753Z,3.67
2023-04-22T22:23:18.676Z,3.50
2023-04-22T22:26:06.085Z,3.63
2023-04-22T22:28:53.904Z,3.25
2023-04-22T22:31:41.638Z,3.60
2023-04-22T22:34:29.324Z,3.55
2023-04-22T22:37:16.751Z,3.47
2023-04-22T22:40:04.439Z,3.40
2023-04-22T22:42:51.787Z,3.65
2023-04-22T22:45:39.245Z,3.50
2023-04-22T22:48:26.750Z,3.92
2023-04-22T22:51:16.521Z,3.47
2023-04-22T22:54:05.540Z,4.03
2023-04-22T22:56:52.959Z,3.45
2023-04-22T22:59:40.338Z,4.35
2023-04-22T23:02:27.852Z,4.03
2023-04-22T23:05:15.303Z,4.05
2023-04-22T23:08:02.675Z,4.03
2023-04-22T23:10:50.537Z,4.05
2023-04-22T23:13:37.915Z,4.18
2023-04-22T23:16:26.170Z,3.72
2023-04-22T23:19:14.297Z,3.78
2023-04-22T23:22:02.303Z,4.00
2023-04-22T23:24:49.859Z,4.30
2023-04-22T23:27:37.358Z,4.40
2023-04-22T23:30:24.907Z,4.80
2023-04-22T23:33:14.572Z,4.93
2023-04-22T23:36:04.300Z,4.90
2023-04-22T23:38:51.712Z,4.78
2023-04-22T23:41:39.052Z,4.72
2023-04-22T23:44:26.395Z,5.00
2023-04-22T23:47:14.470Z,4.38
2023-04-22T23:50:02.138Z,4.40
2023-04-22T23:52:49.518Z,4.25
2023-04-22T23:55:37.069Z,3.90
2023-04-22T23:58:24.487Z,4.25
